Time;durP1;ratioP1;P1;durP2;ratioP2;P2;SDS_P1;SDS_P2;PMS_P1;PMS_P2;Temp;Humidity;BMP_temperature;BMP_pressure;BME280_temperature;BME280_humidity;BME280_pressure;Samples;Min_cycle;Max_cycle;Signal;HPM_P1;HPM_P2
2023/10/31 00:01:50;;;;;;;10.30;6.22;;;12.10;99.90;;;;;;5113400;28;20452;-77
2023/10/31 00:04:16;;;;;;;8.30;5.30;;;12.10;99.90;;;;;;5114684;28;20034;-81
2023/10/31 00:06:41;;;;;;;9.02;5.38;;;12.10;99.90;;;;;;5114692;28;20481;-81
2023/10/31 00:09:08;;;;;;;10.13;5.60;;;12.20;99.90;;;;;;5114520;28;20019;-81
2023/10/31 00:11:34;;;;;;;8.60;6.75;;;12.30;99.90;;;;;;5113304;28;20556;-81
2023/10/31 00:13:59;;;;;;;8.27;4.55;;;12.40;99.90;;;;;;5114446;28;20094;-77
2023/10/31 00:16:25;;;;;;;9.32;5.25;;;12.40;99.90;;;;;;5114553;28;20015;-77
2023/10/31 00:18:51;;;;;;;6.20;4.97;;;12.40;99.90;;;;;;5114481;28;20047;-82
2023/10/31 00:21:16;;;;;;;8.95;5.50;;;12.40;99.90;;;;;;5113199;28;20030;-77
2023/10/31 00:23:46;;;;;;;10.75;5.13;;;12.50;99.90;;;;;;5112922;28;20403;-81
2023/10/31 00:26:12;;;;;;;11.30;6.57;;;12.40;99.90;;;;;;5114255;28;20031;-78
2023/10/31 00:28:37;;;;;;;8.02;5.68;;;12.40;99.90;;;;;;5112346;28;20492;-81
2023/10/31 00:31:03;;;;;;;11.43;6.50;;;12.30;99.90;;;;;;5112620;28;20074;-82
2023/10/31 00:33:29;;;;;;;9.60;6.18;;;12.20;99.90;;;;;;5113922;28;20019;-81
2023/10/31 00:35:55;;;;;;;12.85;5.80;;;12.20;99.90;;;;;;5113953;28;20024;-82
2023/10/31 00:38:21;;;;;;;9.73;6.47;;;12.10;99.90;;;;;;5113927;28;20049;-82
2023/10/31 00:40:46;;;;;;;9.20;6.13;;;12.10;99.90;;;;;;5113854;28;20445;-76
2023/10/31 00:43:12;;;;;;;11.05;5.07;;;12.10;99.90;;;;;;5112424;28;20019;-81
2023/10/31 00:45:38;;;;;;;9.77;5.32;;;12.10;99.90;;;;;;5113653;28;20090;-81
2023/10/31 00:48:04;;;;;;;11.27;4.45;;;12.10;99.90;;;;;;5113503;28;20099;-76
2023/10/31 00:50:29;;;;;;;5.45;4.53;;;12.20;99.90;;;;;;5113655;28;20028;-81
2023/10/31 00:52:55;;;;;;;7.90;5.32;;;12.30;99.90;;;;;;5112314;28;20016;-77
2023/10/31 00:55:21;;;;;;;8.15;4.57;;;12.30;99.90;;;;;;5112724;28;20035;-81
2023/10/31 00:57:46;;;;;;;7.93;4.85;;;12.30;99.90;;;;;;5112685;28;20427;-77
2023/10/31 01:00:12;;;;;;;12.48;6.32;;;12.30;99.90;;;;;;5113727;28;20415;-81
2023/10/31 01:02:38;;;;;;;7.07;5.00;;;12.30;99.90;;;;;;5113597;28;20023;-81
2023/10/31 01:05:04;;;;;;;10.15;5.50;;;12.30;99.90;;;;;;5113543;28;20030;-77
2023/10/31 01:07:30;;;;;;;9.52;5.28;;;12.30;99.90;;;;;;5112386;28;20038;-81
2023/10/31 01:09:55;;;;;;;9.13;5.32;;;12.20;99.90;;;;;;5112134;28;20114;-77
2023/10/31 01:12:21;;;;;;;7.82;4.72;;;12.10;99.90;;;;;;5112299;28;20018;-80
2023/10/31 01:14:47;;;;;;;7.53;4.60;;;12.10;99.90;;;;;;5113606;28;20084;-83
2023/10/31 01:17:13;;;;;;;6.95;5.10;;;12.10;99.90;;;;;;5112028;28;20031;-76
2023/10/31 01:19:38;;;;;;;9.80;5.60;;;12.00;99.90;;;;;;5112049;28;20019;-83
2023/10/31 01:22:04;;;;;;;12.23;5.05;;;12.00;99.90;;;;;;5113267;28;20091;-81
2023/10/31 01:24:29;;;;;;;9.25;4.65;;;12.00;99.90;;;;;;5113307;28;20016;-77
2023/10/31 01:26:55;;;;;;;10.02;5.20;;;11.90;99.90;;;;;;5112971;28;20148;-82
2023/10/31 01:29:21;;;;;;;10.18;5.45;;;11.90;99.90;;;;;;5139467;27;20456;-81
2023/10/31 01:31:46;;;;;;;7.05;5.38;;;12.00;99.90;;;;;;5113116;28;20051;-77
2023/10/31 01:34:12;;;;;;;9.75;4.40;;;12.00;99.90;;;;;;5113275;28;20020;-82
2023/10/31 01:36:38;;;;;;;5.53;4.38;;;12.00;99.90;;;;;;5112683;28;20027;-77
2023/10/31 01:39:03;;;;;;;6.72;4.50;;;12.00;99.90;;;;;;5111772;28;20023;-77
2023/10/31 01:41:29;;;;;;;7.47;5.10;;;12.10;99.90;;;;;;5111565;28;20012;-77
2023/10/31 01:43:55;;;;;;;7.85;4.57;;;12.10;99.90;;;;;;5111854;28;20028;-82
2023/10/31 01:46:20;;;;;;;9.18;4.43;;;12.20;99.90;;;;;;5111440;28;20028;-77
2023/10/31 01:48:46;;;;;;;6.18;4.78;;;12.20;99.90;;;;;;5111757;28;20392;-77
2023/10/31 01:51:12;;;;;;;7.78;4.18;;;12.10;99.90;;;;;;5111639;28;20030;-77
2023/10/31 01:53:39;;;;;;;8.32;4.13;;;12.10;99.90;;;;;;5113161;28;20072;-82
2023/10/31 01:56:06;;;;;;;7.00;3.80;;;12.10;99.90;;;;;;5113128;28;20034;-77
2023/10/31 01:58:37;;;;;;;5.55;3.58;;;12.10;99.90;;;;;;5113342;28;20058;-82
2023/10/31 02:01:04;;;;;;;5.03;4.25;;;12.10;99.90;;;;;;5113158;28;20008;-77
2023/10/31 02:03:30;;;;;;;7.43;4.20;;;12.10;99.90;;;;;;5112096;28;20043;-82
2023/10/31 02:05:57;;;;;;;6.18;3.80;;;12.10;99.90;;;;;;5112845;28;20073;-82
2023/10/31 02:08:23;;;;;;;5.55;3.60;;;12.10;99.90;;;;;;5113079;28;20099;-82
2023/10/31 02:10:49;;;;;;;7.47;3.78;;;12.10;99.90;;;;;;5112503;28;20027;-76
2023/10/31 02:13:17;;;;;;;6.93;3.20;;;12.10;99.90;;;;;;5112850;28;20027;-82
2023/10/31 02:15:42;;;;;;;4.53;3.10;;;12.20;99.90;;;;;;5111226;28;20030;-77
2023/10/31 02:18:08;;;;;;;5.40;2.95;;;12.30;99.90;;;;;;5111523;28;20016;-76
2023/10/31 02:20:34;;;;;;;5.10;3.05;;;12.40;99.90;;;;;;5111355;28;20016;-77
2023/10/31 02:23:01;;;;;;;5.35;3.00;;;12.70;99.90;;;;;;5112892;28;20069;-82
2023/10/31 02:25:26;;;;;;;4.38;2.97;;;12.80;99.90;;;;;;5112449;28;20019;-77
2023/10/31 02:27:52;;;;;;;5.03;3.38;;;12.90;99.90;;;;;;5112708;28;20401;-82
2023/10/31 02:30:18;;;;;;;4.57;2.70;;;13.00;99.90;;;;;;5110704;28;20051;-82
2023/10/31 02:32:43;;;;;;;5.28;2.67;;;13.10;99.90;;;;;;5111405;28;20149;-77
2023/10/31 02:35:09;;;;;;;6.78;2.50;;;13.10;99.90;;;;;;5112749;28;20038;-77
2023/10/31 02:37:35;;;;;;;6.75;3.55;;;13.20;99.90;;;;;;5112623;28;20358;-81
2023/10/31 02:40:01;;;;;;;5.53;2.38;;;13.20;99.90;;;;;;5112343;28;20011;-81
2023/10/31 02:42:27;;;;;;;2.80;2.35;;;13.30;99.90;;;;;;5111413;28;20020;-76
2023/10/31 02:44:53;;;;;;;5.95;2.63;;;13.50;99.90;;;;;;5112212;28;20373;-80
2023/10/31 02:47:19;;;;;;;5.20;2.20;;;13.50;99.90;;;;;;5112627;28;20027;-81
2023/10/31 02:49:45;;;;;;;5.75;2.83;;;13.50;99.90;;;;;;5112336;28;20031;-81
2023/10/31 02:52:11;;;;;;;4.85;2.30;;;13.60;99.90;;;;;;5113668;28;20032;-76
2023/10/31 02:54:36;;;;;;;2.58;2.20;;;13.60;99.90;;;;;;5115586;28;20020;-81
2023/10/31 02:57:02;;;;;;;10.52;2.70;;;13.70;99.90;;;;;;5112802;28;20024;-76
2023/10/31 02:59:28;;;;;;;4.70;2.47;;;13.80;99.90;;;;;;5114138;28;20012;-76
2023/10/31 03:01:56;;;;;;;2.45;2.13;;;13.90;99.90;;;;;;5115670;28;20093;-82
2023/10/31 03:04:21;;;;;;;5.53;2.42;;;14.00;99.90;;;;;;5116018;28;20024;-82
2023/10/31 03:06:47;;;;;;;4.05;2.38;;;14.00;99.90;;;;;;5114513;28;20031;-77
2023/10/31 03:09:13;;;;;;;6.93;2.30;;;14.20;99.90;;;;;;5114479;28;20088;-77
2023/10/31 03:11:38;;;;;;;4.45;2.10;;;14.30;99.90;;;;;;5116288;28;20037;-82
2023/10/31 03:14:04;;;;;;;4.22;2.17;;;14.40;99.90;;;;;;5115656;28;20030;-82
2023/10/31 03:16:30;;;;;;;6.97;1.92;;;14.40;99.90;;;;;;5114661;28;20023;-82
2023/10/31 03:18:56;;;;;;;5.40;2.40;;;14.40;99.90;;;;;;5115457;28;20027;-77
2023/10/31 03:21:22;;;;;;;4.30;2.42;;;14.40;99.90;;;;;;5114231;28;20027;-77
2023/10/31 03:23:49;;;;;;;4.28;2.15;;;14.30;99.90;;;;;;5114275;28;20015;-77
2023/10/31 03:26:18;;;;;;;4.75;2.25;;;14.30;99.90;;;;;;5115420;28;20572;-81
2023/10/31 03:28:44;;;;;;;4.30;2.70;;;14.20;99.90;;;;;;5115297;28;20031;-82
2023/10/31 03:31:10;;;;;;;3.17;2.05;;;14.20;99.90;;;;;;5113422;28;20038;-77
2023/10/31 03:33:36;;;;;;;2.67;1.90;;;14.20;99.90;;;;;;5115403;28;20026;-77
2023/10/31 03:36:02;;;;;;;6.65;1.98;;;14.20;99.90;;;;;;5111424;28;20027;-77
2023/10/31 03:38:28;;;;;;;5.63;2.03;;;14.30;99.90;;;;;;5115442;28;20023;-76
2023/10/31 03:40:53;;;;;;;2.85;2.17;;;14.30;98.90;;;;;;5115065;28;20076;-82
2023/10/31 03:43:19;;;;;;;5.20;1.85;;;14.40;96.90;;;;;;5115319;28;20026;-77
2023/10/31 03:45:49;;;;;;;4.22;1.80;;;14.60;95.20;;;;;;5110450;28;20028;-77
2023/10/31 03:48:16;;;;;;;3.00;2.10;;;14.60;93.20;;;;;;5113864;28;20024;-84
2023/10/31 03:50:42;;;;;;;3.72;1.70;;;14.70;92.10;;;;;;5113095;28;20069;-83
2023/10/31 03:53:07;;;;;;;2.42;1.75;;;14.70;91.00;;;;;;5114959;28;20374;-77
2023/10/31 03:55:33;;;;;;;2.70;1.58;;;14.80;90.30;;;;;;5105345;28;20023;-83
2023/10/31 03:57:59;;;;;;;5.45;2.00;;;14.80;89.90;;;;;;5114617;28;20023;-84
2023/10/31 04:00:25;;;;;;;3.65;1.92;;;14.80;89.40;;;;;;5114507;28;20020;-82
2023/10/31 04:02:50;;;;;;;4.75;1.85;;;14.90;88.70;;;;;;5113853;28;20072;-84
2023/10/31 04:05:19;;;;;;;3.22;1.73;;;14.90;88.00;;;;;;5112777;28;20041;-82
2023/10/31 04:07:48;;;;;;;4.40;1.63;;;15.00;86.50;;;;;;5112627;28;20044;-83
2023/10/31 04:10:14;;;;;;;4.07;1.65;;;15.10;85.10;;;;;;5112907;28;20132;-82
2023/10/31 04:12:41;;;;;;;7.90;1.73;;;15.10;85.40;;;;;;5114233;28;20016;-82
2023/10/31 04:15:07;;;;;;;2.22;1.60;;;15.20;84.70;;;;;;5112381;27;20560;-84
2023/10/31 04:17:33;;;;;;;5.70;1.75;;;15.30;82.80;;;;;;5114376;28;20031;-84
2023/10/31 04:19:59;;;;;;;4.57;2.03;;;15.30;82.10;;;;;;5112477;28;20106;-82
2023/10/31 04:22:25;;;;;;;6.10;2.25;;;15.50;80.70;;;;;;5112408;28;20015;-82
2023/10/31 04:24:50;;;;;;;1.60;1.50;;;15.50;80.00;;;;;;5112447;28;20008;-83
2023/10/31 04:27:16;;;;;;;5.00;1.70;;;15.50;80.50;;;;;;5113965;28;20052;-83
2023/10/31 04:29:42;;;;;;;3.10;1.60;;;15.60;79.90;;;;;;5112280;27;20027;-82
2023/10/31 04:32:07;;;;;;;4.05;2.13;;;15.60;80.00;;;;;;5107297;28;20027;-83
2023/10/31 04:34:33;;;;;;;6.25;1.85;;;15.60;79.70;;;;;;5110511;28;20019;-83
2023/10/31 04:36:59;;;;;;;4.57;1.98;;;15.70;78.30;;;;;;5113047;28;20477;-82
2023/10/31 04:39:27;;;;;;;3.63;1.52;;;15.70;78.10;;;;;;5107121;28;20085;-83
2023/10/31 04:41:53;;;;;;;3.65;1.80;;;15.80;77.60;;;;;;5110374;28;20553;-83
2023/10/31 04:44:19;;;;;;;3.58;1.75;;;15.90;76.50;;;;;;5105522;28;20043;-78
2023/10/31 04:46:44;;;;;;;4.65;1.90;;;15.90;75.80;;;;;;5104103;28;20168;-77
2023/10/31 04:49:13;;;;;;;3.60;2.17;;;16.00;75.70;;;;;;5109348;28;20366;-78
2023/10/31 04:51:39;;;;;;;4.38;1.77;;;16.00;75.10;;;;;;5108840;28;20022;-75
2023/10/31 04:54:05;;;;;;;3.88;1.98;;;16.10;74.90;;;;;;5109776;28;20070;-76
2023/10/31 04:56:31;;;;;;;4.10;1.98;;;16.10;74.50;;;;;;5111226;28;20027;-82
2023/10/31 04:58:57;;;;;;;4.22;1.80;;;16.00;74.70;;;;;;5111496;28;20020;-82
2023/10/31 05:01:24;;;;;;;5.07;1.90;;;16.00;74.80;;;;;;5112152;28;20422;-77
2023/10/31 05:03:49;;;;;;;2.88;1.67;;;16.10;74.20;;;;;;5106741;28;20043;-77
2023/10/31 05:06:20;;;;;;;5.43;2.15;;;16.20;73.40;;;;;;5110551;28;20496;-77
2023/10/31 05:08:46;;;;;;;3.80;2.15;;;16.10;73.20;;;;;;5108881;28;20036;-78
2023/10/31 05:11:12;;;;;;;3.65;1.90;;;16.10;73.60;;;;;;5103863;27;20049;-77
2023/10/31 05:13:39;;;;;;;3.38;1.80;;;16.10;73.30;;;;;;5110523;28;20064;-77
2023/10/31 05:16:04;;;;;;;6.05;2.70;;;16.20;73.30;;;;;;5105371;28;20037;-77
2023/10/31 05:18:30;;;;;;;3.20;1.65;;;16.10;73.00;;;;;;5110119;28;20110;-77
2023/10/31 05:20:56;;;;;;;3.90;1.88;;;16.10;73.30;;;;;;5107208;28;20019;-77
2023/10/31 05:23:21;;;;;;;2.92;2.10;;;16.10;73.20;;;;;;5109504;28;20477;-77
2023/10/31 05:25:47;;;;;;;4.55;2.00;;;16.10;73.30;;;;;;5107200;28;20030;-77
2023/10/31 05:28:12;;;;;;;4.45;1.98;;;16.10;73.20;;;;;;5096758;28;20036;-76
2023/10/31 05:30:38;;;;;;;5.68;2.10;;;16.10;73.30;;;;;;5110023;28;20036;-77
2023/10/31 05:33:04;;;;;;;5.28;1.80;;;16.10;72.90;;;;;;5110542;28;20023;-77
2023/10/31 05:35:29;;;;;;;5.10;2.00;;;16.10;73.10;;;;;;5108148;28;20062;-77
2023/10/31 05:37:55;;;;;;;2.97;1.80;;;16.20;72.20;;;;;;5112876;28;20381;-77
2023/10/31 05:40:24;;;;;;;4.43;2.40;;;16.20;72.50;;;;;;5097726;28;20489;-77
2023/10/31 05:42:50;;;;;;;2.40;1.55;;;16.10;72.70;;;;;;5111288;28;20499;-77
2023/10/31 05:45:16;;;;;;;5.70;2.13;;;16.20;72.10;;;;;;5145172;27;20024;-77
2023/10/31 05:47:41;;;;;;;5.63;2.00;;;16.30;71.70;;;;;;5104487;28;20036;-77
2023/10/31 05:50:08;;;;;;;4.05;2.42;;;16.30;72.10;;;;;;5099878;28;20027;-77
2023/10/31 05:52:34;;;;;;;6.43;1.90;;;16.40;71.00;;;;;;5105779;28;20126;-76
2023/10/31 05:54:59;;;;;;;3.63;1.70;;;16.40;71.10;;;;;;5110087;28;20043;-77
2023/10/31 05:57:25;;;;;;;6.85;1.77;;;16.40;71.30;;;;;;5104774;28;20480;-77
2023/10/31 05:59:51;;;;;;;3.10;1.65;;;16.40;71.60;;;;;;5110899;28;20027;-77
2023/10/31 06:02:16;;;;;;;3.85;2.38;;;16.40;71.80;;;;;;5107953;28;20022;-82
2023/10/31 06:04:42;;;;;;;4.30;1.67;;;16.30;72.20;;;;;;5110795;28;20069;-82
2023/10/31 06:07:08;;;;;;;6.75;2.22;;;16.30;72.30;;;;;;5112797;28;20039;-77
2023/10/31 06:09:33;;;;;;;3.83;2.35;;;16.30;72.00;;;;;;5106585;28;20024;-77
2023/10/31 06:12:02;;;;;;;4.72;2.50;;;16.20;72.70;;;;;;5110511;28;20016;-83
2023/10/31 06:14:28;;;;;;;6.40;2.65;;;16.20;73.20;;;;;;5110363;28;20405;-83
2023/10/31 06:16:54;;;;;;;5.28;2.05;;;16.20;73.20;;;;;;5108878;28;20039;-77
2023/10/31 06:19:20;;;;;;;6.05;1.90;;;16.20;73.70;;;;;;5110120;28;20016;-77
2023/10/31 06:21:46;;;;;;;3.08;1.90;;;16.20;73.40;;;;;;5105932;28;20059;-83
2023/10/31 06:24:11;;;;;;;4.82;2.22;;;16.20;74.10;;;;;;5110761;28;20450;-83
2023/10/31 06:26:37;;;;;;;2.65;2.10;;;16.20;73.50;;;;;;5113928;28;20081;-77
2023/10/31 06:29:03;;;;;;;6.25;1.92;;;16.20;73.00;;;;;;5112977;28;20489;-83
2023/10/31 06:31:29;;;;;;;4.88;2.25;;;16.30;72.70;;;;;;5106846;28;20044;-84
2023/10/31 06:33:54;;;;;;;7.00;2.28;;;16.40;72.50;;;;;;5106447;28;20035;-83
2023/10/31 06:36:20;;;;;;;2.38;1.50;;;16.40;72.50;;;;;;5107079;28;20065;-83
2023/10/31 06:38:46;;;;;;;4.10;2.28;;;16.50;71.60;;;;;;5108049;28;20385;-77
2023/10/31 06:41:11;;;;;;;6.05;2.05;;;16.50;71.20;;;;;;5112831;28;20024;-77
2023/10/31 06:43:37;;;;;;;4.28;2.00;;;16.70;70.30;;;;;;5113909;28;20035;-83
2023/10/31 06:46:05;;;;;;;8.68;2.97;;;16.70;70.00;;;;;;5111481;28;20496;-83
2023/10/31 06:48:30;;;;;;;6.68;2.70;;;16.70;70.30;;;;;;5109871;28;20154;-78
2023/10/31 06:50:56;;;;;;;3.70;1.95;;;16.70;70.60;;;;;;5109785;28;20111;-83
2023/10/31 06:53:21;;;;;;;4.95;1.88;;;16.70;71.10;;;;;;5110079;28;20027;-77
2023/10/31 06:55:48;;;;;;;3.72;2.10;;;16.70;70.80;;;;;;5111031;28;20173;-77
2023/10/31 06:58:13;;;;;;;11.55;6.00;;;16.80;70.70;;;;;;5109460;28;20385;-83
2023/10/31 07:00:39;;;;;;;4.03;1.80;;;16.70;71.60;;;;;;5109872;28;20023;-83
2023/10/31 07:03:08;;;;;;;4.78;2.40;;;16.80;70.80;;;;;;5113939;28;20027;-77
2023/10/31 07:05:35;;;;;;;4.20;2.03;;;16.80;70.10;;;;;;5112663;28;20088;-83
2023/10/31 07:08:02;;;;;;;6.60;2.63;;;16.90;69.90;;;;;;5112844;28;20404;-83
2023/10/31 07:10:28;;;;;;;4.03;1.95;;;17.00;70.20;;;;;;5115089;28;20024;-83
2023/10/31 07:12:53;;;;;;;7.20;2.30;;;17.10;69.10;;;;;;5111831;28;20023;-83
2023/10/31 07:15:19;;;;;;;12.30;5.05;;;17.10;69.90;;;;;;5112354;28;20019;-83
2023/10/31 07:17:45;;;;;;;10.88;5.18;;;17.20;69.00;;;;;;5115638;28;20032;-83
2023/10/31 07:20:10;;;;;;;4.35;1.90;;;17.20;69.10;;;;;;5117560;28;20027;-77
2023/10/31 07:22:36;;;;;;;9.68;6.05;;;17.30;68.50;;;;;;5112698;28;20019;-77
2023/10/31 07:25:03;;;;;;;9.05;4.60;;;17.30;68.00;;;;;;5110758;28;20108;-84
2023/10/31 07:27:29;;;;;;;7.90;3.85;;;17.30;68.50;;;;;;5113846;28;20028;-77
2023/10/31 07:29:55;;;;;;;7.70;3.38;;;17.30;68.40;;;;;;5111361;28;20051;-83
2023/10/31 07:32:20;;;;;;;6.18;1.73;;;17.20;68.60;;;;;;5111611;28;20019;-77
2023/10/31 07:34:46;;;;;;;17.33;6.03;;;17.30;68.30;;;;;;5111641;28;20035;-77
2023/10/31 07:37:11;;;;;;;5.50;2.08;;;17.30;68.00;;;;;;5103605;28;20048;-83
2023/10/31 07:39:37;;;;;;;3.67;2.70;;;17.30;68.10;;;;;;5109077;28;20034;-77
2023/10/31 07:42:03;;;;;;;4.70;2.05;;;17.20;68.60;;;;;;5112313;28;20093;-77
2023/10/31 07:44:29;;;;;;;3.95;1.90;;;17.30;68.10;;;;;;5110387;28;20361;-83
2023/10/31 07:46:54;;;;;;;5.80;1.88;;;17.20;68.70;;;;;;5111700;28;20080;-77
2023/10/31 07:49:20;;;;;;;4.53;1.73;;;17.30;69.10;;;;;;5135859;27;20012;-83
2023/10/31 07:51:47;;;;;;;5.50;2.13;;;17.20;69.70;;;;;;5113383;28;20496;-82
2023/10/31 07:54:14;;;;;;;3.13;2.05;;;17.10;69.80;;;;;;5110746;28;20030;-83
2023/10/31 07:56:40;;;;;;;3.45;2.15;;;17.10;69.80;;;;;;5106494;28;20087;-83
2023/10/31 07:59:07;;;;;;;2.80;2.25;;;17.10;70.50;;;;;;5109987;28;20465;-77
2023/10/31 08:01:33;;;;;;;6.45;1.83;;;17.00;71.40;;;;;;5110671;28;20024;-77
2023/10/31 08:03:59;;;;;;;3.25;1.52;;;17.00;71.40;;;;;;5112980;28;20491;-83
2023/10/31 08:06:25;;;;;;;4.32;1.85;;;17.00;70.90;;;;;;5113219;28;20040;-77
2023/10/31 08:08:50;;;;;;;4.10;1.42;;;16.90;71.30;;;;;;5114985;28;20461;-77
2023/10/31 08:11:16;;;;;;;3.80;1.75;;;16.90;71.40;;;;;;5114073;28;20028;-77
2023/10/31 08:13:42;;;;;;;5.05;1.63;;;16.90;71.60;;;;;;5114664;28;20024;-77
2023/10/31 08:16:08;;;;;;;7.10;2.45;;;16.80;71.70;;;;;;5111487;28;20065;-77
2023/10/31 08:18:34;;;;;;;11.93;2.63;;;16.80;72.10;;;;;;5110114;28;20047;-83
2023/10/31 08:20:59;;;;;;;4.95;1.75;;;16.80;72.20;;;;;;5112524;28;20015;-83
2023/10/31 08:23:25;;;;;;;4.53;1.85;;;16.80;72.10;;;;;;5114075;28;20469;-77
2023/10/31 08:25:51;;;;;;;6.30;1.90;;;16.80;72.90;;;;;;5114074;28;20026;-83
2023/10/31 08:28:17;;;;;;;4.28;2.13;;;16.70;73.30;;;;;;5111036;28;20061;-77
2023/10/31 08:30:42;;;;;;;3.97;1.67;;;16.80;72.30;;;;;;5109907;28;20039;-83
2023/10/31 08:33:08;;;;;;;3.17;1.90;;;16.80;72.40;;;;;;5110569;28;20046;-77
2023/10/31 08:35:34;;;;;;;3.08;2.05;;;16.70;73.00;;;;;;5107834;28;20054;-77
2023/10/31 08:38:11;;;;;;;8.07;2.58;;;16.70;72.90;;;;;;5109807;28;20020;-79
2023/10/31 08:40:37;;;;;;;3.38;1.80;;;16.70;72.30;;;;;;5109038;28;20020;-77
2023/10/31 08:43:04;;;;;;;4.32;1.75;;;16.70;73.10;;;;;;5112790;28;20030;-84
2023/10/31 08:45:29;;;;;;;6.07;2.20;;;16.70;72.70;;;;;;5110597;28;20016;-77
2023/10/31 08:47:55;;;;;;;4.28;2.50;;;16.70;72.50;;;;;;5111125;28;20438;-83
2023/10/31 08:50:21;;;;;;;7.88;2.85;;;16.70;72.50;;;;;;5111143;28;20037;-83
2023/10/31 08:52:46;;;;;;;3.67;2.38;;;16.70;73.30;;;;;;5110805;28;20030;-83
2023/10/31 08:55:12;;;;;;;4.40;1.70;;;16.60;73.20;;;;;;5107845;28;20102;-77
2023/10/31 08:57:38;;;;;;;6.10;1.95;;;16.60;72.90;;;;;;5107629;28;20035;-83
2023/10/31 09:00:05;;;;;;;4.30;2.15;;;16.70;73.20;;;;;;5107980;28;20084;-83
2023/10/31 09:02:30;;;;;;;3.67;2.03;;;16.60;73.80;;;;;;5107996;28;20046;-77
2023/10/31 09:04:56;;;;;;;3.53;1.98;;;16.70;73.60;;;;;;5110215;28;20051;-84
2023/10/31 09:07:22;;;;;;;5.80;2.58;;;16.70;74.60;;;;;;5113597;28;20030;-83
2023/10/31 09:09:48;;;;;;;3.42;2.33;;;16.70;74.10;;;;;;5113529;28;20403;-84
2023/10/31 09:12:13;;;;;;;2.75;1.92;;;16.70;74.30;;;;;;5110673;28;20035;-78
2023/10/31 09:14:39;;;;;;;5.28;2.15;;;16.60;75.30;;;;;;5109713;28;20019;-78
2023/10/31 09:17:04;;;;;;;5.07;2.25;;;16.60;75.30;;;;;;5111743;28;20393;-77
2023/10/31 09:19:30;;;;;;;4.78;2.00;;;16.50;75.00;;;;;;5101272;28;20018;-83
2023/10/31 09:21:56;;;;;;;5.38;2.50;;;16.50;74.90;;;;;;5108399;28;20016;-84
2023/10/31 09:24:21;;;;;;;2.75;2.35;;;16.50;76.20;;;;;;5111278;28;20028;-83
2023/10/31 09:26:47;;;;;;;3.33;2.75;;;16.40;75.80;;;;;;5112292;28;20040;-84
2023/10/31 09:29:13;;;;;;;3.38;2.25;;;16.40;76.80;;;;;;5109213;28;20024;-78
2023/10/31 09:31:38;;;;;;;5.15;3.05;;;16.40;77.50;;;;;;5111003;28;20075;-78
2023/10/31 09:34:04;;;;;;;8.07;2.92;;;16.40;77.60;;;;;;5108605;28;20028;-84
2023/10/31 09:36:36;;;;;;;8.45;2.60;;;16.40;77.20;;;;;;5111258;28;20076;-84
2023/10/31 09:39:02;;;;;;;6.35;2.70;;;16.40;78.50;;;;;;5109827;28;20058;-77
2023/10/31 09:41:29;;;;;;;4.53;2.70;;;16.40;77.80;;;;;;5106595;28;20016;-77
2023/10/31 09:43:54;;;;;;;6.22;3.83;;;16.40;78.40;;;;;;5100881;28;20027;-78
2023/10/31 09:46:21;;;;;;;4.85;3.13;;;16.30;79.10;;;;;;5130183;27;20035;-78
2023/10/31 09:48:49;;;;;;;5.22;2.75;;;16.30;79.70;;;;;;5113219;28;20489;-84
2023/10/31 09:51:14;;;;;;;4.22;2.85;;;16.30;78.90;;;;;;5112873;28;20077;-84
2023/10/31 09:53:43;;;;;;;6.68;3.28;;;16.30;80.40;;;;;;5111656;28;20019;-84
2023/10/31 09:56:10;;;;;;;5.13;2.88;;;16.30;79.90;;;;;;5113211;28;20445;-78
2023/10/31 09:58:36;;;;;;;6.80;2.85;;;16.40;79.80;;;;;;5111071;28;20027;-84
2023/10/31 10:01:01;;;;;;;9.15;3.15;;;16.30;79.60;;;;;;5109853;28;20020;-84
2023/10/31 10:03:27;;;;;;;10.15;3.15;;;16.30;79.40;;;;;;5112352;28;20442;-84
2023/10/31 10:05:53;;;;;;;9.20;4.15;;;16.30;79.60;;;;;;5113665;28;20031;-83
2023/10/31 10:08:22;;;;;;;10.18;3.60;;;16.40;80.10;;;;;;5114151;28;20028;-83
2023/10/31 10:10:50;;;;;;;9.07;3.97;;;16.60;80.30;;;;;;5112346;28;20511;-78
2023/10/31 10:13:20;;;;;;;3.42;2.83;;;16.80;80.20;;;;;;5113037;28;20027;-84
2023/10/31 10:15:52;;;;;;;7.85;3.20;;;16.80;78.50;;;;;;5112372;28;20111;-84
2023/10/31 10:18:27;;;;;;;7.68;4.22;;;16.80;78.80;;;;;;5113504;28;20041;-78
2023/10/31 10:21:04;;;;;;;8.68;3.60;;;16.80;79.10;;;;;;5118172;28;20476;-78
2023/10/31 10:23:30;;;;;;;5.47;3.70;;;16.80;79.80;;;;;;5115608;28;20016;-83
2023/10/31 10:25:57;;;;;;;4.93;3.58;;;17.00;80.70;;;;;;5113092;28;20024;-78
2023/10/31 10:28:24;;;;;;;6.07;3.35;;;17.10;79.90;;;;;;5112308;28;20027;-84
2023/10/31 10:30:52;;;;;;;6.82;3.40;;;17.00;78.80;;;;;;5114228;28;20071;-80
2023/10/31 10:33:18;;;;;;;7.47;3.08;;;16.90;78.90;;;;;;5113330;28;20011;-78
2023/10/31 10:35:44;;;;;;;7.03;3.40;;;17.00;79.50;;;;;;5116618;28;20432;-78
2023/10/31 10:38:15;;;;;;;8.32;3.67;;;17.00;80.10;;;;;;5113284;28;20031;-78
2023/10/31 10:40:46;;;;;;;9.50;4.47;;;17.00;81.60;;;;;;5110206;28;20020;-79
2023/10/31 10:43:31;;;;;;;6.07;2.78;;;17.00;82.70;;;;;;5113076;28;20016;-78
2023/10/31 10:45:58;;;;;;;7.97;2.88;;;16.90;82.10;;;;;;5111451;28;20027;-78
2023/10/31 10:48:27;;;;;;;7.47;2.92;;;16.90;84.20;;;;;;5113192;28;20012;-78
2023/10/31 10:51:33;;;;;;;7.75;2.90;;;17.00;84.40;;;;;;5114503;28;20049;-78
2023/10/31 10:54:09;;;;;;;8.23;2.08;;;17.00;85.40;;;;;;5110878;28;20027;-78
2023/10/31 10:56:41;;;;;;;14.05;2.60;;;16.90;83.80;;;;;;5113937;28;20039;-78
2023/10/31 10:59:19;;;;;;;11.23;2.65;;;16.80;84.90;;;;;;5112705;28;20581;-78
2023/10/31 11:01:47;;;;;;;4.68;2.15;;;16.70;85.70;;;;;;5114559;28;20051;-84
2023/10/31 11:04:13;;;;;;;3.10;1.85;;;16.60;87.70;;;;;;5116162;28;20018;-78
2023/10/31 11:06:39;;;;;;;3.20;1.80;;;16.60;88.30;;;;;;5114479;28;20151;-78
2023/10/31 11:09:06;;;;;;;4.18;1.50;;;16.50;88.70;;;;;;5115816;28;20024;-78
2023/10/31 11:11:32;;;;;;;5.78;2.13;;;16.40;90.90;;;;;;5116000;28;20019;-78
2023/10/31 11:14:01;;;;;;;4.93;2.05;;;16.30;91.50;;;;;;5113172;28;20046;-84
2023/10/31 11:16:35;;;;;;;2.10;1.60;;;16.20;92.40;;;;;;5114565;28;20047;-83
2023/10/31 11:19:01;;;;;;;7.63;1.95;;;16.10;92.30;;;;;;5112638;28;20051;-78
2023/10/31 11:21:30;;;;;;;4.93;1.60;;;16.00;93.50;;;;;;5115084;28;20128;-78
2023/10/31 11:24:00;;;;;;;2.67;1.50;;;16.00;95.10;;;;;;5115302;28;20030;-78
2023/10/31 11:26:50;;;;;;;2.58;1.52;;;16.00;96.00;;;;;;5114985;28;20065;-84
2023/10/31 11:29:17;;;;;;;3.85;1.70;;;15.90;96.90;;;;;;5115312;28;20058;-78
2023/10/31 11:31:43;;;;;;;10.40;2.10;;;15.90;98.50;;;;;;5105962;28;20075;-78
2023/10/31 11:34:09;;;;;;;4.53;1.83;;;15.90;99.00;;;;;;5115193;28;20421;-83
2023/10/31 11:36:38;;;;;;;3.35;2.25;;;16.00;99.70;;;;;;5113599;28;20016;-84
2023/10/31 11:39:20;;;;;;;3.70;1.73;;;16.10;99.90;;;;;;5111863;28;20481;-84
2023/10/31 11:41:52;;;;;;;;;;;16.10;96.90;;;;;;5108509;28;20020;-84
2023/10/31 11:44:21;;;;;;;2.53;1.40;;;16.20;96.20;;;;;;5106563;28;20423;-78
2023/10/31 11:46:50;;;;;;;4.43;1.73;;;16.20;95.90;;;;;;5117786;27;20039;-78
2023/10/31 11:49:16;;;;;;;3.95;2.17;;;16.10;95.30;;;;;;5111030;28;20031;-78
2023/10/31 11:51:46;;;;;;;2.10;1.60;;;16.20;95.00;;;;;;5114220;28;20046;-78
2023/10/31 11:54:13;;;;;;;3.17;1.90;;;16.20;96.40;;;;;;5103607;28;20419;-78
2023/10/31 11:56:38;;;;;;;3.58;1.50;;;16.20;95.90;;;;;;5111571;28;20500;-84
2023/10/31 11:59:08;;;;;;;3.55;2.15;;;16.10;95.50;;;;;;5113040;28;20024;-84
2023/10/31 12:01:34;;;;;;;3.42;1.63;;;16.10;96.20;;;;;;5114658;27;20024;-78
2023/10/31 12:04:00;;;;;;;2.22;1.83;;;16.00;97.90;;;;;;5093036;28;20031;-78
2023/10/31 12:06:25;;;;;;;4.18;1.60;;;16.00;98.00;;;;;;5109378;28;20122;-78
2023/10/31 12:08:51;;;;;;;3.35;1.80;;;15.90;97.90;;;;;;5111580;28;20461;-84
2023/10/31 12:11:19;;;;;;;2.45;1.70;;;15.90;98.00;;;;;;5113516;28;20500;-78
2023/10/31 12:14:00;;;;;;;3.88;1.55;;;15.90;98.50;;;;;;5112927;28;20388;-78
2023/10/31 12:16:31;;;;;;;1.63;1.42;;;15.90;98.50;;;;;;5105537;28;20011;-78
2023/10/31 12:19:05;;;;;;;6.22;3.08;;;16.00;98.80;;;;;;5129954;27;20547;-84
2023/10/31 12:21:38;;;;;;;1.48;1.30;;;16.00;98.20;;;;;;5112932;28;20016;-78
2023/10/31 12:24:08;;;;;;;3.30;1.40;;;16.00;97.00;;;;;;5110897;28;20028;-78
2023/10/31 12:26:35;;;;;;;5.43;3.30;;;16.10;97.20;;;;;;5112781;28;20110;-78
2023/10/31 12:29:18;;;;;;;3.25;1.23;;;16.00;96.60;;;;;;5108860;28;20027;-78
2023/10/31 12:31:47;;;;;;;2.13;1.30;;;15.90;96.80;;;;;;5106584;28;20059;-84
2023/10/31 12:34:16;;;;;;;2.03;1.55;;;16.00;98.30;;;;;;5110959;28;20027;-79
2023/10/31 12:36:44;;;;;;;2.88;1.40;;;15.90;98.10;;;;;;5110899;28;20140;-84
2023/10/31 12:39:15;;;;;;;4.90;1.38;;;15.90;98.50;;;;;;5091170;28;20092;-84
2023/10/31 12:41:41;;;;;;;2.38;1.70;;;15.80;98.30;;;;;;5112171;28;20122;-78
2023/10/31 12:44:10;;;;;;;1.58;1.30;;;15.80;99.90;;;;;;5111311;28;20081;-78